Time;durP1;ratioP1;P1;durP2;ratioP2;P2;SDS_P1;SDS_P2;PMS_P1;PMS_P2;Temp;Humidity;BMP_temperature;BMP_pressure;BME280_temperature;BME280_humidity;BME280_pressure;Samples;Min_cycle;Max_cycle;Signal;HPM_P1;HPM_P2
2022/07/18 00:00:13;;;;;;;2.00;1.77;;;18.50;52.90;;;;;;5054160;28;20073;-62
2022/07/18 00:02:39;;;;;;;4.80;1.80;;;18.50;53.00;;;;;;5053026;28;20385;-60
2022/07/18 00:05:05;;;;;;;3.30;1.80;;;18.50;53.00;;;;;;5057946;28;20382;-60
2022/07/18 00:07:31;;;;;;;3.15;1.70;;;18.50;53.20;;;;;;5054912;28;20135;-60
2022/07/18 00:09:57;;;;;;;2.15;1.90;;;18.40;53.10;;;;;;5058022;28;20281;-59
2022/07/18 00:12:22;;;;;;;1.88;1.77;;;18.40;53.20;;;;;;5056500;28;20024;-62
2022/07/18 00:14:48;;;;;;;2.58;1.75;;;18.40;53.40;;;;;;5054626;28;20078;-62
2022/07/18 00:17:14;;;;;;;2.45;1.50;;;18.30;53.50;;;;;;5055338;28;20036;-61
2022/07/18 00:19:40;;;;;;;1.70;1.60;;;18.30;53.70;;;;;;5056063;28;20029;-62
2022/07/18 00:22:06;;;;;;;2.08;1.88;;;18.20;53.80;;;;;;5058151;28;20498;-60
2022/07/18 00:24:31;;;;;;;2.00;1.90;;;18.20;53.90;;;;;;5055351;28;20044;-61
2022/07/18 00:26:58;;;;;;;1.90;1.80;;;18.10;53.80;;;;;;5056224;28;20032;-61
2022/07/18 00:29:23;;;;;;;2.03;1.80;;;18.10;53.80;;;;;;5055143;28;20556;-61
2022/07/18 00:31:49;;;;;;;1.88;1.77;;;18.10;53.70;;;;;;5055527;28;20040;-60
2022/07/18 00:34:15;;;;;;;2.30;1.73;;;18.00;53.70;;;;;;5057961;28;20477;-61
2022/07/18 00:36:40;;;;;;;1.88;1.77;;;18.00;53.70;;;;;;5055546;28;20048;-60
2022/07/18 00:39:06;;;;;;;2.25;1.92;;;18.00;53.70;;;;;;5056527;28;20059;-59
2022/07/18 00:41:32;;;;;;;1.77;1.67;;;17.90;54.40;;;;;;5055409;28;20495;-62
2022/07/18 00:43:57;;;;;;;1.90;1.80;;;17.90;54.00;;;;;;5055291;28;20028;-61
2022/07/18 00:46:25;;;;;;;2.53;1.73;;;17.80;54.00;;;;;;5053082;28;20079;-61
2022/07/18 00:48:51;;;;;;;3.70;1.90;;;17.70;54.20;;;;;;5054444;28;22420;-60
2022/07/18 00:51:17;;;;;;;2.83;1.65;;;17.60;54.40;;;;;;5055613;28;20130;-62
2022/07/18 00:53:43;;;;;;;2.22;2.03;;;17.60;54.30;;;;;;5055347;28;20070;-59
2022/07/18 00:56:09;;;;;;;3.60;1.80;;;17.50;54.40;;;;;;5057477;28;20044;-62
2022/07/18 00:58:35;;;;;;;1.77;1.67;;;17.50;54.70;;;;;;5054094;28;20037;-62
2022/07/18 01:03:45;;;;;;;1.80;1.70;;;17.50;54.80;;;;;;5058421;28;20424;-61
2022/07/18 01:06:11;;;;;;;4.47;1.80;;;17.50;55.00;;;;;;5057294;28;20024;-60
2022/07/18 01:08:38;;;;;;;3.13;2.10;;;17.50;55.10;;;;;;5050709;28;20497;-61
2022/07/18 01:11:04;;;;;;;2.10;2.00;;;17.50;55.30;;;;;;5052176;28;20047;-62
2022/07/18 01:13:29;;;;;;;2.20;2.00;;;17.50;55.30;;;;;;5053045;28;20055;-62
2022/07/18 01:15:55;;;;;;;2.90;2.10;;;17.50;55.50;;;;;;5053446;28;20416;-61
2022/07/18 01:18:21;;;;;;;2.60;1.95;;;17.40;55.60;;;;;;5054180;28;20033;-60
2022/07/18 01:20:46;;;;;;;3.30;2.30;;;17.40;55.70;;;;;;5052918;28;20039;-59
2022/07/18 01:23:12;;;;;;;2.28;2.08;;;17.30;55.90;;;;;;5054963;28;20033;-59
2022/07/18 01:25:37;;;;;;;1.90;1.80;;;17.30;56.00;;;;;;5053633;28;20101;-61
2022/07/18 01:28:03;;;;;;;2.17;1.95;;;17.20;56.00;;;;;;5057102;28;20028;-61
2022/07/18 01:30:29;;;;;;;4.50;2.00;;;17.20;56.30;;;;;;5052529;28;20069;-60
2022/07/18 01:33:00;;;;;;;2.13;1.90;;;17.10;56.40;;;;;;5053460;28;20025;-61
2022/07/18 01:35:27;;;;;;;2.30;2.10;;;17.10;56.70;;;;;;5054351;28;20033;-62
2022/07/18 01:37:57;;;;;;;2.25;2.03;;;17.00;56.60;;;;;;5054049;28;20404;-62
2022/07/18 01:40:23;;;;;;;2.33;2.10;;;17.00;56.70;;;;;;5053710;28;20032;-61
2022/07/18 01:42:49;;;;;;;2.40;2.20;;;16.90;56.70;;;;;;5052672;28;20087;-60
2022/07/18 01:45:15;;;;;;;2.05;1.95;;;16.90;56.70;;;;;;5053249;28;20043;-61
2022/07/18 01:47:41;;;;;;;2.10;1.90;;;16.80;56.70;;;;;;5054188;28;20044;-60
2022/07/18 01:50:09;;;;;;;2.30;2.10;;;16.80;56.70;;;;;;5053486;28;20514;-59
2022/07/18 01:52:35;;;;;;;2.80;2.45;;;16.70;56.80;;;;;;5054956;28;20056;-61
2022/07/18 01:55:01;;;;;;;2.38;2.05;;;16.70;56.80;;;;;;5054782;28;20510;-62
2022/07/18 01:57:26;;;;;;;5.88;2.30;;;16.60;56.90;;;;;;5055750;28;20033;-63
2022/07/18 01:59:52;;;;;;;2.40;2.08;;;16.60;57.00;;;;;;5051191;28;20523;-63
2022/07/18 02:02:18;;;;;;;2.50;2.22;;;16.60;57.00;;;;;;5056162;28;20036;-63
2022/07/18 02:05:02;;;;;;;2.78;2.15;;;16.50;57.20;;;;;;5051771;28;20045;-63
2022/07/18 02:07:31;;;;;;;4.25;2.15;;;16.40;57.30;;;;;;5054011;28;20382;-61
2022/07/18 02:09:57;;;;;;;3.50;2.00;;;16.40;57.70;;;;;;5052566;28;20072;-62
2022/07/18 02:12:23;;;;;;;3.05;2.20;;;16.40;57.90;;;;;;5054001;28;20120;-62
2022/07/18 02:14:49;;;;;;;2.22;2.08;;;16.30;58.40;;;;;;5054323;28;20033;-61
2022/07/18 02:17:15;;;;;;;2.53;2.28;;;16.30;58.50;;;;;;5056295;28;20039;-61
2022/07/18 02:19:41;;;;;;;2.55;2.28;;;16.30;58.70;;;;;;5051901;28;20033;-61
2022/07/18 02:22:06;;;;;;;2.88;2.20;;;16.30;58.80;;;;;;5054636;28;20040;-61
2022/07/18 02:24:32;;;;;;;3.75;2.33;;;16.20;58.80;;;;;;5053059;28;20035;-62
2022/07/18 02:26:58;;;;;;;2.38;2.17;;;16.30;59.60;;;;;;5053293;28;20691;-60
2022/07/18 02:29:24;;;;;;;2.50;2.30;;;16.30;58.90;;;;;;5054807;28;20033;-60
2022/07/18 02:31:49;;;;;;;2.10;2.00;;;16.30;58.90;;;;;;5052618;28;20187;-61
2022/07/18 02:34:15;;;;;;;3.08;2.42;;;16.30;58.90;;;;;;5054280;28;20507;-62
2022/07/18 02:36:42;;;;;;;3.90;2.53;;;16.30;58.90;;;;;;5051393;28;21758;-62
2022/07/18 02:39:09;;;;;;;3.63;2.28;;;16.30;59.00;;;;;;5054147;28;20114;-62
2022/07/18 02:41:35;;;;;;;2.67;2.33;;;16.30;59.00;;;;;;5052528;28;20066;-61
2022/07/18 02:44:02;;;;;;;2.53;2.33;;;16.30;59.00;;;;;;5055368;28;20663;-61
2022/07/18 02:46:27;;;;;;;4.00;2.67;;;16.30;59.10;;;;;;5052175;28;20033;-62
2022/07/18 02:48:53;;;;;;;2.55;2.25;;;16.20;59.00;;;;;;5053460;28;20040;-60
2022/07/18 02:51:19;;;;;;;3.17;2.25;;;16.20;59.10;;;;;;5052263;28;20060;-61
2022/07/18 02:53:45;;;;;;;2.70;2.50;;;16.10;59.10;;;;;;5051166;28;20554;-61
2022/07/18 02:56:10;;;;;;;3.60;2.53;;;16.10;59.20;;;;;;5053163;28;20041;-60
2022/07/18 02:58:36;;;;;;;2.47;2.28;;;16.10;59.30;;;;;;5050478;28;20491;-62
2022/07/18 03:01:02;;;;;;;3.30;2.55;;;16.10;59.40;;;;;;5054947;28;20029;-61
2022/07/18 03:03:28;;;;;;;3.83;2.63;;;16.00;59.40;;;;;;5054187;28;20036;-61
2022/07/18 03:05:53;;;;;;;2.83;2.50;;;16.00;59.40;;;;;;5054509;28;20456;-62
2022/07/18 03:08:19;;;;;;;4.20;2.47;;;16.00;59.50;;;;;;5056512;28;20417;-62
2022/07/18 03:10:44;;;;;;;2.55;2.25;;;15.90;59.60;;;;;;5053043;28;20079;-61
2022/07/18 03:13:10;;;;;;;4.55;2.47;;;15.90;59.60;;;;;;5056358;28;20045;-62
2022/07/18 03:15:36;;;;;;;2.80;2.38;;;15.90;59.60;;;;;;5056151;28;20041;-61
2022/07/18 03:18:02;;;;;;;3.20;2.60;;;15.90;59.50;;;;;;5053173;28;20101;-62
2022/07/18 03:20:28;;;;;;;2.75;2.55;;;15.90;59.50;;;;;;5053586;28;20332;-60
2022/07/18 03:22:54;;;;;;;6.28;2.63;;;15.90;59.40;;;;;;5052879;28;20121;-61
2022/07/18 03:25:19;;;;;;;3.58;2.53;;;15.90;59.50;;;;;;5055473;28;20031;-61
2022/07/18 03:27:45;;;;;;;3.75;2.80;;;15.80;59.50;;;;;;5048463;28;20132;-61
2022/07/18 03:30:11;;;;;;;3.72;2.45;;;15.80;59.60;;;;;;5053055;28;20033;-62
2022/07/18 03:32:37;;;;;;;3.00;2.28;;;15.70;59.70;;;;;;5051625;28;20037;-59
2022/07/18 03:35:03;;;;;;;2.63;2.42;;;15.70;59.90;;;;;;5051726;28;20037;-60
2022/07/18 03:37:29;;;;;;;4.05;2.65;;;15.60;59.90;;;;;;5053300;28;20033;-62
2022/07/18 03:39:54;;;;;;;3.08;2.30;;;15.60;60.10;;;;;;5056730;28;20051;-59
2022/07/18 03:42:20;;;;;;;3.35;2.42;;;15.60;60.20;;;;;;5057943;28;20037;-61
2022/07/18 03:44:46;;;;;;;2.60;2.40;;;15.70;60.50;;;;;;5052939;28;20068;-62
2022/07/18 03:47:11;;;;;;;3.30;3.00;;;15.60;60.50;;;;;;5056355;28;20040;-61
2022/07/18 03:49:37;;;;;;;2.63;2.42;;;15.60;60.50;;;;;;5056187;28;20415;-62
2022/07/18 03:52:03;;;;;;;5.32;2.70;;;15.60;60.30;;;;;;5055646;28;20040;-62
2022/07/18 03:54:29;;;;;;;3.90;2.58;;;15.60;60.60;;;;;;5060137;28;20025;-60
2022/07/18 03:56:54;;;;;;;3.00;2.53;;;15.60;60.90;;;;;;5057722;28;20090;-60
2022/07/18 03:59:20;;;;;;;2.63;2.42;;;15.60;61.00;;;;;;5056748;28;20036;-62
2022/07/18 04:01:46;;;;;;;2.95;2.67;;;15.60;60.80;;;;;;5054808;28;20025;-61
2022/07/18 04:04:11;;;;;;;5.30;2.97;;;15.60;60.80;;;;;;5055165;28;20028;-62
2022/07/18 04:06:37;;;;;;;2.97;2.65;;;15.70;60.80;;;;;;5055392;28;20043;-61
2022/07/18 04:09:03;;;;;;;3.20;2.80;;;15.60;60.70;;;;;;5056973;28;20115;-61
2022/07/18 04:11:28;;;;;;;3.05;2.63;;;15.60;60.80;;;;;;5053290;28;20420;-62
2022/07/18 04:13:54;;;;;;;3.40;2.47;;;15.50;60.80;;;;;;5052513;28;20102;-62
2022/07/18 04:16:20;;;;;;;2.80;2.60;;;15.50;60.90;;;;;;5054186;28;20037;-62
2022/07/18 04:18:46;;;;;;;3.20;2.90;;;15.50;61.90;;;;;;5053114;28;20049;-62
2022/07/18 04:21:12;;;;;;;2.72;2.53;;;15.50;61.20;;;;;;5054382;28;20523;-60
2022/07/18 04:23:39;;;;;;;2.63;2.42;;;15.50;61.20;;;;;;5055654;28;20033;-62
2022/07/18 04:26:04;;;;;;;3.28;2.50;;;15.50;61.20;;;;;;5054491;28;20048;-61
2022/07/18 04:28:30;;;;;;;3.28;2.58;;;15.50;61.20;;;;;;5054182;28;20036;-62
2022/07/18 04:30:56;;;;;;;2.45;2.30;;;15.50;61.20;;;;;;5054640;28;20033;-60
2022/07/18 04:33:21;;;;;;;3.13;2.38;;;15.50;61.20;;;;;;5054256;28;20090;-62
2022/07/18 04:35:48;;;;;;;2.95;2.58;;;15.60;61.30;;;;;;5053717;28;20036;-60
2022/07/18 04:38:14;;;;;;;4.30;2.53;;;15.70;61.40;;;;;;5053810;28;20713;-61
2022/07/18 04:40:40;;;;;;;3.08;2.78;;;15.70;61.40;;;;;;5056367;28;20044;-61
2022/07/18 04:43:06;;;;;;;5.85;2.65;;;15.70;61.50;;;;;;5055110;28;20605;-61
2022/07/18 04:45:32;;;;;;;3.47;2.60;;;15.80;61.70;;;;;;5055062;28;20041;-59
2022/07/18 04:47:58;;;;;;;4.97;2.83;;;15.80;61.40;;;;;;5055576;28;20102;-61
2022/07/18 04:50:24;;;;;;;4.50;3.00;;;15.80;61.60;;;;;;5054514;28;20496;-61
2022/07/18 04:52:50;;;;;;;4.75;2.70;;;15.80;61.70;;;;;;5055619;28;20035;-61
2022/07/18 04:55:18;;;;;;;4.28;3.00;;;15.80;61.80;;;;;;5054946;28;20515;-61
2022/07/18 04:57:44;;;;;;;3.22;2.92;;;15.90;62.20;;;;;;5054245;28;20036;-61
2022/07/18 05:00:13;;;;;;;3.15;2.95;;;15.80;62.20;;;;;;5054955;28;20033;-61
2022/07/18 05:02:43;;;;;;;4.68;3.25;;;15.90;62.60;;;;;;5053257;28;20086;-61
2022/07/18 05:05:10;;;;;;;4.47;3.03;;;15.90;62.70;;;;;;5054696;28;20504;-61
2022/07/18 05:07:37;;;;;;;5.57;3.00;;;15.90;62.80;;;;;;5055336;28;20047;-59
2022/07/18 05:10:07;;;;;;;3.22;2.88;;;15.90;62.90;;;;;;5051289;28;20054;-59
2022/07/18 05:12:36;;;;;;;4.50;3.25;;;16.00;62.90;;;;;;5053727;28;20048;-61
2022/07/18 05:15:04;;;;;;;3.67;2.90;;;16.00;63.10;;;;;;5053216;28;20044;-61
2022/07/18 05:17:30;;;;;;;4.85;2.90;;;16.00;63.00;;;;;;5055854;28;20119;-60
2022/07/18 05:19:55;;;;;;;3.83;3.13;;;16.10;63.20;;;;;;5051234;28;20029;-62
2022/07/18 05:22:21;;;;;;;3.50;3.20;;;16.20;63.20;;;;;;5054000;28;20079;-61
2022/07/18 05:24:46;;;;;;;4.43;3.50;;;16.30;63.20;;;;;;5054219;28;20045;-62
2022/07/18 05:27:12;;;;;;;5.80;3.38;;;16.40;63.10;;;;;;5053659;28;20064;-63
2022/07/18 05:29:38;;;;;;;4.40;3.08;;;16.40;63.10;;;;;;5053563;28;20403;-62
2022/07/18 05:32:04;;;;;;;7.03;3.38;;;16.50;62.90;;;;;;5052042;28;20032;-62
2022/07/18 05:34:29;;;;;;;6.63;3.47;;;16.60;62.50;;;;;;5052480;28;20104;-62
2022/07/18 05:36:55;;;;;;;7.05;3.53;;;16.80;62.40;;;;;;5050716;28;20040;-63
2022/07/18 05:39:21;;;;;;;4.40;3.42;;;16.90;62.20;;;;;;5054305;28;20574;-62
2022/07/18 05:41:46;;;;;;;5.47;3.28;;;17.00;62.00;;;;;;5052074;28;20034;-62
2022/07/18 05:44:12;;;;;;;5.65;2.80;;;17.20;61.70;;;;;;5052358;28;20123;-62
2022/07/18 05:46:37;;;;;;;5.20;2.80;;;17.30;61.30;;;;;;5054592;28;20041;-60
2022/07/18 05:49:03;;;;;;;6.05;3.13;;;17.40;61.00;;;;;;5053102;28;20033;-61
2022/07/18 05:51:28;;;;;;;3.88;2.75;;;17.50;61.00;;;;;;5052201;28;20047;-63
2022/07/18 05:53:54;;;;;;;7.47;2.65;;;17.70;60.30;;;;;;5052705;28;20040;-62
2022/07/18 05:56:20;;;;;;;2.90;2.42;;;17.70;59.80;;;;;;5053768;28;20043;-61
2022/07/18 05:58:45;;;;;;;3.38;2.33;;;17.90;59.30;;;;;;5054019;28;20075;-61
2022/07/18 06:01:12;;;;;;;3.42;2.20;;;18.00;58.80;;;;;;5051113;28;20568;-63
2022/07/18 06:03:38;;;;;;;3.53;2.35;;;18.10;58.50;;;;;;5051044;28;20037;-60
2022/07/18 06:06:03;;;;;;;3.58;2.30;;;18.10;58.30;;;;;;5053492;28;20060;-62
2022/07/18 06:08:29;;;;;;;2.40;2.20;;;18.30;58.30;;;;;;5050145;28;20045;-62
2022/07/18 06:10:55;;;;;;;2.50;2.30;;;18.40;58.00;;;;;;5050775;28;20075;-63
2022/07/18 06:13:20;;;;;;;3.67;2.70;;;18.50;57.80;;;;;;5055189;28;20075;-62
2022/07/18 06:15:46;;;;;;;4.00;2.50;;;18.60;57.70;;;;;;5056005;28;20594;-60
2022/07/18 06:18:12;;;;;;;2.88;2.50;;;18.70;57.80;;;;;;5053021;28;21726;-61
2022/07/18 06:20:37;;;;;;;4.38;2.88;;;18.80;58.00;;;;;;5052847;28;20078;-60
2022/07/18 06:23:03;;;;;;;4.63;2.85;;;18.90;58.10;;;;;;5050899;28;20407;-59
2022/07/18 06:25:28;;;;;;;2.90;2.70;;;19.00;58.00;;;;;;5052697;28;20082;-62
2022/07/18 06:27:54;;;;;;;3.38;2.90;;;19.10;58.40;;;;;;5051139;28;20029;-60
2022/07/18 06:30:22;;;;;;;3.42;2.53;;;19.30;57.60;;;;;;5052087;28;20032;-61
2022/07/18 06:32:48;;;;;;;4.10;2.42;;;19.30;57.30;;;;;;5051392;28;20515;-61
2022/07/18 06:35:14;;;;;;;2.97;2.28;;;19.50;57.00;;;;;;5054225;28;20037;-60
2022/07/18 06:37:39;;;;;;;4.13;1.98;;;19.60;56.50;;;;;;5056283;28;20040;-62
2022/07/18 06:40:06;;;;;;;3.22;2.50;;;19.70;55.90;;;;;;5053119;28;20033;-61
2022/07/18 06:42:32;;;;;;;2.78;2.28;;;19.80;55.10;;;;;;5051115;28;20118;-62
2022/07/18 06:44:58;;;;;;;2.63;2.42;;;19.90;55.40;;;;;;5051588;28;20404;-63
2022/07/18 06:47:24;;;;;;;3.50;2.40;;;20.00;55.70;;;;;;5053269;28;20028;-63
2022/07/18 06:49:49;;;;;;;6.57;2.75;;;20.10;55.10;;;;;;5051879;28;20047;-61
2022/07/18 06:52:15;;;;;;;2.55;2.30;;;20.20;55.30;;;;;;5049273;28;20116;-61
2022/07/18 06:54:41;;;;;;;4.38;2.80;;;20.20;54.10;;;;;;5049770;28;20510;-61
2022/07/18 06:57:07;;;;;;;6.35;2.30;;;20.30;54.20;;;;;;5051454;28;20040;-61
2022/07/18 06:59:33;;;;;;;2.92;2.40;;;20.40;54.00;;;;;;5054410;28;20090;-61
2022/07/18 07:01:59;;;;;;;2.78;2.05;;;20.50;54.20;;;;;;5054058;28;20060;-62
2022/07/18 07:04:24;;;;;;;2.30;2.13;;;20.60;54.00;;;;;;5051564;28;20124;-62
2022/07/18 07:06:50;;;;;;;2.58;2.38;;;20.70;54.00;;;;;;5052679;28;20094;-61
2022/07/18 07:09:16;;;;;;;3.10;2.10;;;20.70;53.70;;;;;;5051475;28;20068;-60
2022/07/18 07:11:41;;;;;;;2.42;2.22;;;20.80;53.60;;;;;;5049550;28;20526;-63
2022/07/18 07:14:07;;;;;;;3.47;2.13;;;21.00;53.70;;;;;;5053479;28;20036;-61
2022/07/18 07:16:32;;;;;;;2.03;1.90;;;21.10;53.40;;;;;;5059410;28;20036;-62
2022/07/18 07:18:58;;;;;;;3.83;2.15;;;21.20;53.30;;;;;;5055722;28;20039;-62
2022/07/18 07:21:24;;;;;;;2.47;2.05;;;21.20;53.20;;;;;;5057144;28;20037;-61
2022/07/18 07:23:49;;;;;;;2.28;1.90;;;21.40;53.40;;;;;;5054801;28;20041;-61
2022/07/18 07:26:15;;;;;;;3.35;2.10;;;21.50;53.00;;;;;;5054799;28;20446;-61
2022/07/18 07:28:41;;;;;;;3.30;2.10;;;21.60;52.60;;;;;;5055860;28;20222;-62
2022/07/18 07:31:06;;;;;;;6.60;1.70;;;21.70;52.30;;;;;;5054967;28;20512;-61
2022/07/18 07:33:32;;;;;;;2.80;1.80;;;21.80;51.60;;;;;;5056490;28;20496;-61
2022/07/18 07:35:57;;;;;;;1.88;1.70;;;21.90;51.60;;;;;;5053342;28;20029;-63
2022/07/18 07:38:27;;;;;;;3.83;1.80;;;22.10;51.50;;;;;;5054784;28;20381;-62
2022/07/18 07:40:54;;;;;;;2.58;1.80;;;22.20;51.70;;;;;;5054742;28;20105;-62
2022/07/18 07:43:20;;;;;;;8.77;1.70;;;22.30;51.30;;;;;;5056671;28;20040;-61
2022/07/18 07:45:48;;;;;;;1.85;1.63;;;22.40;51.20;;;;;;5054346;28;20044;-61
2022/07/18 07:48:14;;;;;;;2.35;1.60;;;22.60;51.00;;;;;;5055821;28;20036;-60
2022/07/18 07:50:40;;;;;;;2.67;1.90;;;22.70;50.80;;;;;;5058312;28;20123;-61
2022/07/18 07:53:07;;;;;;;2.50;1.83;;;22.90;50.00;;;;;;5055550;28;20797;-61
2022/07/18 07:55:33;;;;;;;2.95;1.90;;;22.90;50.00;;;;;;5057410;28;20059;-62
2022/07/18 07:57:59;;;;;;;1.77;1.60;;;23.10;49.60;;;;;;5056818;28;20450;-62
2022/07/18 08:00:25;;;;;;;1.83;1.70;;;23.20;49.40;;;;;;5054939;28;20037;-62
2022/07/18 08:02:56;;;;;;;3.78;1.80;;;23.30;49.60;;;;;;5050291;28;20025;-62
2022/07/18 08:05:22;;;;;;;3.80;1.42;;;23.40;49.40;;;;;;5057216;28;20041;-60
2022/07/18 08:07:48;;;;;;;1.77;1.67;;;23.60;49.30;;;;;;5056093;28;20032;-62
2022/07/18 08:10:14;;;;;;;3.55;1.85;;;23.80;49.10;;;;;;5056851;28;20047;-61
2022/07/18 08:12:39;;;;;;;3.30;1.80;;;23.80;48.40;;;;;;5053491;28;20037;-62
2022/07/18 08:15:06;;;;;;;2.60;1.83;;;24.00;48.30;;;;;;5055448;28;20079;-60
2022/07/18 08:17:31;;;;;;;2.10;1.65;;;24.10;47.90;;;;;;5055959;28;20517;-60
2022/07/18 08:19:57;;;;;;;3.97;2.10;;;24.20;47.40;;;;;;5055334;28;20048;-61
2022/07/18 08:22:23;;;;;;;2.10;1.63;;;24.30;47.40;;;;;;5057004;28;20044;-60
2022/07/18 08:24:49;;;;;;;2.92;1.80;;;24.40;47.20;;;;;;5052449;28;20771;-60
2022/07/18 08:27:15;;;;;;;5.18;1.90;;;24.60;46.80;;;;;;5056847;28;20170;-60
2022/07/18 08:29:41;;;;;;;3.28;1.73;;;24.70;46.80;;;;;;5054148;28;20082;-62
2022/07/18 08:32:06;;;;;;;3.40;1.50;;;24.80;46.60;;;;;;5054084;28;20033;-62
2022/07/18 08:34:32;;;;;;;1.40;1.30;;;24.90;46.90;;;;;;5054903;28;20093;-60
2022/07/18 08:36:57;;;;;;;3.55;1.42;;;25.10;46.20;;;;;;5054735;28;20040;-62
2022/07/18 08:39:23;;;;;;;5.60;1.50;;;25.20;46.20;;;;;;5056218;28;20527;-61
2022/07/18 08:41:51;;;;;;;4.22;1.52;;;25.30;46.20;;;;;;5055277;28;20032;-60
2022/07/18 08:44:17;;;;;;;1.75;1.20;;;25.50;45.70;;;;;;5052690;28;20052;-61
2022/07/18 08:46:50;;;;;;;3.72;1.60;;;25.60;45.20;;;;;;5051758;28;20053;-61
2022/07/18 08:49:16;;;;;;;2.10;1.20;;;25.80;44.20;;;;;;5056024;28;20040;-62
2022/07/18 08:51:43;;;;;;;1.35;1.25;;;26.00;44.50;;;;;;5058137;28;20045;-61
2022/07/18 08:54:09;;;;;;;4.00;1.40;;;26.10;44.60;;;;;;5053463;28;20718;-61
2022/07/18 08:56:35;;;;;;;1.48;1.30;;;26.30;44.50;;;;;;5053431;28;20033;-63
2022/07/18 08:59:02;;;;;;;2.45;1.20;;;26.40;44.30;;;;;;5056925;28;20108;-60
2022/07/18 09:01:29;;;;;;;5.57;1.42;;;26.60;44.00;;;;;;5057199;28;20044;-63
2022/07/18 09:06:44;;;;;;;3.03;1.27;;;26.90;43.00;;;;;;5053418;28;20114;-63
2022/07/18 09:09:12;;;;;;;4.68;1.23;;;27.00;42.10;;;;;;5052815;28;20408;-62
2022/07/18 09:11:50;;;;;;;6.18;1.48;;;27.20;42.40;;;;;;5056466;28;20116;-62
2022/07/18 09:14:41;;;;;;;2.35;1.27;;;27.30;41.10;;;;;;5052212;28;20563;-63
2022/07/18 09:17:18;;;;;;;2.28;1.45;;;27.50;41.60;;;;;;5057263;28;20091;-62
2022/07/18 09:20:01;;;;;;;1.30;1.17;;;27.60;41.50;;;;;;5055962;28;20483;-62
2022/07/18 09:22:30;;;;;;;1.55;1.40;;;27.80;41.00;;;;;;5055586;28;20029;-62
2022/07/18 09:25:04;;;;;;;2.05;1.23;;;27.90;41.10;;;;;;5053243;28;20119;-62
2022/07/18 09:27:30;;;;;;;;;;;28.00;41.20;;;;;;5054985;28;20087;-60
2022/07/18 09:30:13;;;;;;;1.30;1.20;;;28.10;41.90;;;;;;5055155;28;19917;-62
2022/07/18 09:32:40;;;;;;;1.90;1.30;;;28.30;40.90;;;;;;5053902;28;20515;-60
2022/07/18 09:35:10;;;;;;;1.40;1.20;;;28.40;40.60;;;;;;5057795;28;20032;-62
2022/07/18 09:37:36;;;;;;;1.13;1.10;;;28.50;39.70;;;;;;5056057;28;20059;-62
2022/07/18 09:40:19;;;;;;;2.75;1.45;;;28.70;39.20;;;;;;5056985;28;20543;-61
2022/07/18 09:42:50;;;;;;;1.35;1.25;;;28.80;37.50;;;;;;5055384;28;20411;-62
2022/07/18 09:45:20;;;;;;;1.25;1.10;;;28.90;36.50;;;;;;5052118;28;20504;-62
2022/07/18 09:47:55;;;;;;;5.55;1.10;;;29.00;37.40;;;;;;5053702;28;20119;-62
2022/07/18 09:50:21;;;;;;;;;;;29.10;36.10;;;;;;5050666;28;20037;-61
2022/07/18 09:52:56;;;;;;;2.15;1.05;;;29.30;38.10;;;;;;5048324;28;19919;-63
2022/07/18 09:55:23;;;;;;;1.38;0.90;;;29.40;36.50;;;;;;5056310;28;20356;-61
2022/07/18 09:58:08;;;;;;;1.48;1.20;;;29.50;35.90;;;;;;5056044;28;20526;-62
2022/07/18 10:00:36;;;;;;;1.02;0.95;;;29.60;32.80;;;;;;5053558;28;20127;-61
2022/07/18 10:03:03;;;;;;;1.38;0.95;;;29.70;34.50;;;;;;5056550;28;20055;-63
2022/07/18 10:05:32;;;;;;;3.80;1.00;;;29.70;32.80;;;;;;5055983;28;20028;-62
2022/07/18 10:07:59;;;;;;;1.00;0.90;;;29.70;34.00;;;;;;5052710;28;20041;-63
2022/07/18 10:10:27;;;;;;;0.88;0.88;;;29.80;33.70;;;;;;5052371;28;20033;-63
2022/07/18 10:12:55;;;;;;;3.55;1.10;;;29.90;33.60;;;;;;5057242;28;20032;-62
2022/07/18 10:15:23;;;;;;;1.42;1.08;;;30.00;33.20;;;;;;5054667;28;20035;-62
2022/07/18 10:17:49;;;;;;;1.23;0.93;;;30.10;33.20;;;;;;5054641;28;20040;-61
2022/07/18 10:20:15;;;;;;;2.00;1.00;;;30.20;33.20;;;;;;5053322;28;20040;-61
2022/07/18 10:22:42;;;;;;;1.20;1.05;;;30.30;33.20;;;;;;5055305;28;20044;-62
2022/07/18 10:25:10;;;;;;;2.42;1.10;;;30.30;32.50;;;;;;5056311;28;20040;-61
2022/07/18 10:27:51;;;;;;;1.20;1.10;;;30.30;32.60;;;;;;5055991;28;20032;-60
2022/07/18 10:30:16;;;;;;;3.35;1.00;;;30.40;33.00;;;;;;5055112;28;20082;-60
2022/07/18 10:32:42;;;;;;;1.17;1.02;;;30.40;33.30;;;;;;5055368;28;20475;-62
2022/07/18 10:35:12;;;;;;;1.33;0.90;;;30.50;33.00;;;;;;5052729;28;20038;-62
2022/07/18 10:37:38;;;;;;;2.65;1.10;;;30.60;32.50;;;;;;5054879;28;20056;-62
2022/07/18 10:40:28;;;;;;;2.63;0.98;;;30.60;31.90;;;;;;5056075;28;20036;-61
2022/07/18 10:43:41;;;;;;;0.98;0.85;;;30.70;30.40;;;;;;5053085;28;20033;-62
2022/07/18 10:46:09;;;;;;;3.17;1.00;;;30.70;31.50;;;;;;5038242;28;20025;-61
2022/07/18 10:48:35;;;;;;;0.88;0.80;;;30.70;32.40;;;;;;5053097;28;20060;-61
2022/07/18 10:51:15;;;;;;;1.38;1.27;;;30.80;32.30;;;;;;5052483;28;20056;-61
2022/07/18 10:53:53;;;;;;;0.90;0.90;;;30.90;31.20;;;;;;5052431;28;20086;-61
2022/07/18 10:56:39;;;;;;;1.00;1.00;;;31.00;30.50;;;;;;5052026;28;20025;-63
2022/07/18 10:59:18;;;;;;;3.05;1.15;;;31.00;30.10;;;;;;5049275;28;20042;-62
2022/07/18 11:01:50;;;;;;;5.10;1.35;;;31.10;30.60;;;;;;5052805;28;20052;-63
2022/07/18 11:04:33;;;;;;;1.27;0.82;;;31.10;30.00;;;;;;5050352;28;20529;-63
2022/07/18 11:07:15;;;;;;;1.00;1.00;;;31.20;30.30;;;;;;5051582;28;20119;-63
2022/07/18 11:09:48;;;;;;;1.10;1.00;;;31.20;29.70;;;;;;5051995;28;20099;-60
2022/07/18 11:12:27;;;;;;;2.42;0.88;;;31.20;29.90;;;;;;5049421;28;20041;-62
2022/07/18 11:15:10;;;;;;;1.10;0.80;;;31.30;30.00;;;;;;5054799;28;20033;-63
2022/07/18 11:17:51;;;;;;;0.80;0.80;;;31.30;29.90;;;;;;5052627;28;20105;-63
2022/07/18 11:20:42;;;;;;;0.85;0.82;;;31.40;29.60;;;;;;5053310;28;20582;-60
2022/07/18 11:23:23;;;;;;;1.23;1.13;;;31.50;29.80;;;;;;5054536;28;20032;-61
2022/07/18 11:25:56;;;;;;;1.25;0.80;;;31.50;29.40;;;;;;5054418;28;20037;-62
2022/07/18 11:28:23;;;;;;;0.73;0.73;;;31.50;29.70;;;;;;5049493;28;20056;-60
2022/07/18 11:31:09;;;;;;;1.05;0.88;;;31.50;29.20;;;;;;5051731;28;20036;-63
2022/07/18 11:33:38;;;;;;;1.58;0.60;;;31.50;29.10;;;;;;5052131;28;20052;-61
2022/07/18 11:36:05;;;;;;;1.30;0.80;;;31.50;29.50;;;;;;5051839;28;20032;-62
2022/07/18 11:38:30;;;;;;;1.38;0.90;;;31.50;29.40;;;;;;5050681;28;20123;-61
2022/07/18 11:40:56;;;;;;;1.77;0.80;;;31.50;29.00;;;;;;5053442;28;20590;-63
2022/07/18 11:43:23;;;;;;;1.13;0.80;;;31.50;28.80;;;;;;5046129;28;20037;-62
2022/07/18 11:46:03;;;;;;;0.85;0.80;;;31.50;29.20;;;;;;5052813;28;20446;-64
2022/07/18 11:48:29;;;;;;;3.03;0.80;;;31.50;29.20;;;;;;5053724;28;20029;-62
2022/07/18 11:50:55;;;;;;;1.17;0.80;;;31.50;29.30;;;;;;5054855;28;20048;-61
2022/07/18 11:53:21;;;;;;;1.52;0.90;;;31.50;28.80;;;;;;5052674;28;20044;-63
2022/07/18 11:55:48;;;;;;;1.10;0.90;;;31.50;28.60;;;;;;5053585;28;20032;-61
2022/07/18 11:58:15;;;;;;;2.25;0.98;;;31.50;29.10;;;;;;5054687;28;20064;-64
2022/07/18 12:00:41;;;;;;;2.25;0.98;;;31.50;29.20;;;;;;5055775;28;20025;-62
2022/07/18 12:03:13;;;;;;;1.15;0.60;;;31.50;28.90;;;;;;5057716;28;20124;-62
2022/07/18 12:05:41;;;;;;;1.75;0.73;;;31.60;28.50;;;;;;5054805;28;20028;-62
2022/07/18 12:08:29;;;;;;;0.93;0.80;;;31.60;28.10;;;;;;5058827;28;20074;-63
2022/07/18 12:11:09;;;;;;;3.50;0.95;;;31.60;27.40;;;;;;5055764;28;20045;-62
2022/07/18 12:13:55;;;;;;;0.75;0.75;;;31.60;27.50;;;;;;5059661;28;20630;-61
2022/07/18 12:16:46;;;;;;;1.67;0.80;;;31.60;28.00;;;;;;5059293;28;20044;-61
2022/07/18 12:19:13;;;;;;;1.17;0.70;;;31.60;27.80;;;;;;5059322;28;20110;-62
2022/07/18 12:22:11;;;;;;;1.17;0.70;;;31.60;28.10;;;;;;5057627;28;20032;-63
2022/07/18 12:24:49;;;;;;;3.22;0.80;;;31.60;27.20;;;;;;5057736;28;20408;-64
2022/07/18 12:27:18;;;;;;;1.88;0.80;;;31.70;27.50;;;;;;5058965;28;20029;-64
2022/07/18 12:30:04;;;;;;;1.40;0.80;;;31.70;27.90;;;;;;5057599;28;20040;-63
2022/07/18 12:32:45;;;;;;;0.85;0.70;;;31.70;27.20;;;;;;5056053;28;20037;-63
2022/07/18 12:35:15;;;;;;;1.33;0.70;;;31.70;27.30;;;;;;5050238;28;20559;-61
2022/07/18 12:37:41;;;;;;;1.70;0.82;;;31.70;27.60;;;;;;5057823;28;20298;-63
2022/07/18 12:40:11;;;;;;;1.55;0.70;;;31.70;27.10;;;;;;5058707;28;20574;-65
2022/07/18 12:42:40;;;;;;;2.58;0.70;;;31.70;27.10;;;;;;5058262;28;20040;-64
2022/07/18 12:45:08;;;;;;;0.75;0.50;;;31.80;27.20;;;;;;5057824;28;20033;-63
2022/07/18 12:47:34;;;;;;;1.65;0.60;;;31.80;27.40;;;;;;5057102;28;20032;-63
2022/07/18 12:50:00;;;;;;;0.70;0.70;;;31.80;27.20;;;;;;5057684;28;20040;-64
2022/07/18 12:52:26;;;;;;;0.70;0.60;;;31.80;27.00;;;;;;5057653;28;20071;-64
2022/07/18 12:54:52;;;;;;;1.05;0.95;;;31.90;27.40;;;;;;5058309;28;20048;-64
2022/07/18 12:57:18;;;;;;;0.85;0.73;;;31.90;27.40;;;;;;5058017;28;20078;-63